Time;durP1;ratioP1;P1;durP2;ratioP2;P2;SDS_P1;SDS_P2;PMS_P1;PMS_P2;Temp;Humidity;BMP_temperature;BMP_pressure;BME280_temperature;BME280_humidity;BME280_pressure;Samples;Min_cycle;Max_cycle;Signal;HPM_P1;HPM_P2
2024/03/31 00:01:24;;;;;;;36.20;20.83;;;5.60;99.90;;;;;;4962039;28;20228;-61
2024/03/31 00:07:33;;;;;;;33.63;19.17;;;5.40;99.90;;;;;;4954684;28;20568;-61
2024/03/31 00:09:59;;;;;;;39.00;20.60;;;5.30;99.90;;;;;;4953496;29;20220;-61
2024/03/31 00:12:45;;;;;;;33.97;18.97;;;5.30;99.90;;;;;;4953479;29;20316;-62
2024/03/31 00:18:41;;;;;;;35.23;19.80;;;5.20;99.90;;;;;;4935671;29;20228;-61
2024/03/31 00:21:09;;;;;;;33.77;20.33;;;5.10;99.90;;;;;;4934247;29;20220;-61
2024/03/31 00:27:02;;;;;;;38.13;21.03;;;5.10;99.90;;;;;;4935578;29;20234;-61
2024/03/31 00:29:29;;;;;;;41.30;21.77;;;5.10;99.90;;;;;;4918984;29;20271;-61
2024/03/31 00:31:56;;;;;;;48.37;23.97;;;5.00;99.90;;;;;;4947884;29;20382;-61
2024/03/31 00:34:24;;;;;;;48.10;24.30;;;5.00;99.90;;;;;;4944397;28;20330;-61
2024/03/31 00:36:52;;;;;;;50.60;24.53;;;5.00;99.90;;;;;;4941230;29;20711;-61
2024/03/31 00:39:18;;;;;;;47.87;23.90;;;4.90;99.90;;;;;;4934267;29;20224;-61
2024/03/31 00:42:24;;;;;;;59.23;26.03;;;4.90;99.90;;;;;;4934146;29;20204;-61
2024/03/31 00:48:16;;;;;;;43.47;24.47;;;5.00;99.90;;;;;;4969719;28;20718;-61
2024/03/31 00:50:44;;;;;;;43.00;23.50;;;4.90;99.90;;;;;;4935661;29;20197;-60
2024/03/31 00:53:11;;;;;;;42.23;22.80;;;4.90;99.90;;;;;;4925363;29;20186;-61
2024/03/31 00:55:38;;;;;;;44.27;22.60;;;4.90;99.90;;;;;;4956079;28;20258;-61
2024/03/31 00:58:05;;;;;;;42.90;22.83;;;4.90;99.90;;;;;;4938807;29;20310;-61
2024/03/31 01:00:32;;;;;;;42.13;22.67;;;4.90;99.90;;;;;;4956753;29;20238;-61
2024/03/31 01:03:00;;;;;;;45.37;23.37;;;4.90;99.90;;;;;;4952281;28;20244;-61
2024/03/31 01:05:27;;;;;;;45.70;24.23;;;4.90;99.90;;;;;;4957398;29;20520;-61
2024/03/31 01:11:38;;;;;;;42.00;22.70;;;5.10;99.90;;;;;;4964418;28;20274;-61
2024/03/31 01:14:05;;;;;;;44.17;22.37;;;5.10;99.90;;;;;;4953164;28;20555;-61
2024/03/31 01:16:33;;;;;;;40.30;22.03;;;5.10;99.90;;;;;;4971522;28;20680;-61
2024/03/31 01:18:59;;;;;;;44.77;22.33;;;5.10;99.90;;;;;;4956815;28;20655;-61
2024/03/31 01:21:29;;;;;;;40.60;21.27;;;5.00;99.90;;;;;;4956572;28;20676;-61
2024/03/31 01:23:59;;;;;;;42.67;21.87;;;5.00;99.90;;;;;;4926757;29;20234;-61
2024/03/31 01:26:27;;;;;;;45.17;22.93;;;4.90;99.90;;;;;;4971555;28;20621;-61
2024/03/31 01:28:54;;;;;;;48.73;24.70;;;5.00;99.90;;;;;;4964328;28;20321;-61
2024/03/31 01:31:21;;;;;;;48.43;24.83;;;5.10;99.90;;;;;;4949936;29;20267;-61
2024/03/31 01:33:48;;;;;;;54.23;29.10;;;5.20;99.90;;;;;;4949643;28;20266;-61
2024/03/31 01:36:15;;;;;;;59.53;30.00;;;5.40;99.90;;;;;;4956089;28;20228;-61
2024/03/31 01:38:42;;;;;;;57.93;28.40;;;5.60;99.90;;;;;;4941420;28;20288;-61
2024/03/31 01:41:11;;;;;;;57.37;28.90;;;5.70;99.90;;;;;;4954044;29;20279;-61
2024/03/31 01:43:39;;;;;;;66.13;31.87;;;5.80;99.90;;;;;;4940928;28;20235;-61
2024/03/31 01:46:08;;;;;;;63.20;30.70;;;6.00;99.90;;;;;;4944820;29;20307;-61
2024/03/31 01:48:35;;;;;;;65.00;31.50;;;6.10;99.90;;;;;;4957149;28;20362;-61
2024/03/31 01:51:02;;;;;;;67.27;31.77;;;6.20;99.90;;;;;;4965919;28;20298;-61
2024/03/31 01:53:29;;;;;;;62.97;31.37;;;6.30;99.90;;;;;;4970935;28;20682;-61
2024/03/31 01:55:56;;;;;;;59.60;29.90;;;6.40;99.90;;;;;;4965334;28;20302;-62
2024/03/31 01:58:24;;;;;;;61.97;29.93;;;6.40;99.90;;;;;;4958147;28;20303;-61
2024/03/31 02:00:52;;;;;;;59.63;29.27;;;6.40;99.90;;;;;;4960094;28;20224;-61
2024/03/31 02:03:18;;;;;;;61.80;30.17;;;6.40;99.90;;;;;;4939510;28;20235;-61
2024/03/31 02:05:46;;;;;;;63.03;31.10;;;6.40;99.90;;;;;;4961765;28;20263;-61
2024/03/31 02:08:12;;;;;;;64.57;31.23;;;6.40;99.90;;;;;;4955692;29;20220;-62
2024/03/31 02:10:39;;;;;;;64.47;32.90;;;6.50;99.90;;;;;;4943524;28;20216;-61
2024/03/31 02:13:44;;;;;;;70.50;34.30;;;6.50;99.90;;;;;;4941462;29;20769;-61
2024/03/31 02:19:54;;;;;;;75.33;36.33;;;6.50;99.90;;;;;;4946772;28;20212;-61
2024/03/31 02:22:20;;;;;;;85.50;37.83;;;6.50;99.90;;;;;;4920598;29;20568;-61
2024/03/31 02:24:48;;;;;;;80.73;37.63;;;6.50;99.90;;;;;;4925081;28;20250;-60
2024/03/31 02:27:14;;;;;;;78.27;36.70;;;6.50;99.90;;;;;;4974484;28;20228;-61
2024/03/31 02:29:42;;;;;;;75.67;36.63;;;6.50;99.90;;;;;;4973644;28;20322;-61
2024/03/31 02:32:09;;;;;;;86.60;37.23;;;6.60;99.90;;;;;;4957657;28;20303;-61
2024/03/31 02:34:36;;;;;;;86.57;37.47;;;6.60;99.90;;;;;;4937618;28;20251;-61
2024/03/31 02:37:04;;;;;;;75.93;35.77;;;6.60;99.90;;;;;;4936101;29;20280;-62
2024/03/31 02:43:13;;;;;;;77.03;35.50;;;6.60;99.90;;;;;;4949810;28;20227;-61
2024/03/31 02:45:58;;;;;;;79.43;35.17;;;6.70;99.90;;;;;;4962371;28;20311;-61
2024/03/31 02:48:25;;;;;;;78.67;35.97;;;6.70;99.90;;;;;;4936587;29;20228;-61
2024/03/31 02:50:52;;;;;;;76.17;36.50;;;6.70;99.90;;;;;;4945016;29;20629;-61
2024/03/31 02:53:20;;;;;;;81.47;36.47;;;6.80;99.90;;;;;;4936502;29;20287;-61
2024/03/31 02:55:47;;;;;;;77.97;35.93;;;6.70;99.90;;;;;;4936011;29;20279;-62
2024/03/31 02:58:14;;;;;;;74.43;36.03;;;6.80;99.90;;;;;;4935698;29;20586;-61
2024/03/31 03:00:40;;;;;;;77.60;35.00;;;6.80;99.90;;;;;;4935788;29;20425;-61
2024/03/31 03:03:09;;;;;;;76.07;36.53;;;6.80;99.90;;;;;;4945339;28;20307;-61
2024/03/31 03:05:35;;;;;;;80.63;36.57;;;6.80;99.90;;;;;;4954852;28;20527;-61
2024/03/31 03:08:03;;;;;;;80.57;36.47;;;6.80;99.90;;;;;;4967005;28;20298;-61
2024/03/31 03:10:31;;;;;;;78.10;35.00;;;6.80;99.90;;;;;;4973801;28;20246;-61
2024/03/31 03:12:59;;;;;;;80.37;35.80;;;6.80;99.90;;;;;;4973811;28;20269;-61
2024/03/31 03:15:26;;;;;;;76.53;35.30;;;6.80;99.90;;;;;;4958495;28;20230;-61
2024/03/31 03:17:56;;;;;;;74.57;35.40;;;6.80;99.90;;;;;;4927372;28;20240;-61
2024/03/31 03:20:23;;;;;;;74.90;36.10;;;6.90;99.90;;;;;;4971352;28;20203;-61
2024/03/31 03:22:58;;;;;;;79.83;35.70;;;6.90;99.90;;;;;;4953520;28;20598;-62
2024/03/31 03:25:25;;;;;;;80.77;37.07;;;6.90;99.90;;;;;;4961580;28;20630;-61
2024/03/31 03:27:54;;;;;;;86.47;37.60;;;6.90;99.90;;;;;;4949111;29;20223;-61
2024/03/31 03:30:57;;;;;;;80.70;36.30;;;7.00;99.90;;;;;;4963440;28;20230;-62
2024/03/31 03:33:25;;;;;;;81.37;37.03;;;7.00;99.90;;;;;;4945870;29;20234;-62
2024/03/31 03:35:53;;;;;;;81.53;37.43;;;7.00;99.90;;;;;;4954278;28;20286;-62
2024/03/31 03:38:21;;;;;;;81.13;35.67;;;7.10;99.90;;;;;;4963206;28;20251;-62
2024/03/31 03:40:49;;;;;;;83.37;36.97;;;7.10;99.90;;;;;;4939489;29;20303;-61
2024/03/31 03:43:18;;;;;;;88.03;36.87;;;7.10;99.90;;;;;;4934768;29;20237;-61
2024/03/31 03:45:46;;;;;;;76.90;36.27;;;7.10;99.90;;;;;;4954239;29;20224;-62
2024/03/31 03:48:13;;;;;;;75.60;36.63;;;7.10;99.90;;;;;;4947125;29;20759;-62
2024/03/31 03:50:42;;;;;;;89.90;37.17;;;7.10;99.90;;;;;;4960832;28;20197;-62
2024/03/31 03:53:10;;;;;;;87.03;38.87;;;7.20;99.90;;;;;;4961441;28;20227;-62
2024/03/31 03:55:36;;;;;;;77.77;36.07;;;7.20;99.90;;;;;;4972395;28;20246;-62
2024/03/31 03:58:04;;;;;;;80.87;36.53;;;7.20;99.90;;;;;;4948525;29;20224;-62
2024/03/31 04:00:31;;;;;;;81.83;36.43;;;7.20;99.90;;;;;;4947903;28;20242;-61
2024/03/31 04:02:59;;;;;;;81.03;37.17;;;7.20;99.90;;;;;;4958988;28;20302;-61
2024/03/31 04:05:25;;;;;;;77.03;35.80;;;7.30;99.90;;;;;;4954352;29;20282;-62
2024/03/31 04:07:53;;;;;;;72.00;33.07;;;7.30;99.90;;;;;;4954516;28;20226;-62
2024/03/31 04:10:19;;;;;;;72.20;32.50;;;7.30;99.90;;;;;;4954109;28;20238;-62
2024/03/31 04:12:49;;;;;;;59.10;31.57;;;7.30;99.90;;;;;;4943468;29;20231;-62
2024/03/31 04:15:16;;;;;;;74.53;32.93;;;7.40;99.90;;;;;;4934434;29;20224;-62
2024/03/31 04:17:45;;;;;;;69.53;31.10;;;7.40;99.90;;;;;;4952885;28;20192;-62
2024/03/31 04:20:11;;;;;;;67.87;30.93;;;7.40;99.90;;;;;;4953993;29;20712;-62
2024/03/31 04:22:38;;;;;;;65.90;31.73;;;7.40;99.90;;;;;;4953474;29;20216;-61
2024/03/31 04:25:05;;;;;;;63.00;30.30;;;7.50;99.90;;;;;;4947990;28;20212;-62
2024/03/31 04:27:33;;;;;;;64.03;31.47;;;7.50;99.90;;;;;;4934489;29;20221;-62
2024/03/31 04:29:59;;;;;;;63.97;30.10;;;7.50;99.90;;;;;;4962793;28;20246;-61
2024/03/31 04:32:26;;;;;;;62.80;31.13;;;7.50;99.90;;;;;;4962272;28;20279;-61
2024/03/31 04:34:55;;;;;;;63.20;30.63;;;7.60;99.90;;;;;;4955496;29;20267;-61
2024/03/31 04:37:23;;;;;;;64.93;30.67;;;7.60;99.90;;;;;;4938419;29;20225;-61
2024/03/31 04:43:19;;;;;;;64.17;29.93;;;7.60;99.90;;;;;;4958580;28;20247;-62
2024/03/31 04:45:45;;;;;;;65.93;31.10;;;7.60;99.90;;;;;;4960612;28;20216;-62
2024/03/31 04:48:13;;;;;;;65.43;30.97;;;7.60;99.90;;;;;;4957017;29;20255;-62
2024/03/31 04:50:43;;;;;;;65.20;30.70;;;7.60;99.90;;;;;;4958491;28;20198;-61
2024/03/31 04:53:10;;;;;;;66.60;30.27;;;7.70;99.90;;;;;;4950693;28;20327;-63
2024/03/31 04:55:36;;;;;;;61.33;31.43;;;7.70;99.90;;;;;;4968887;28;20224;-63
2024/03/31 04:58:04;;;;;;;63.67;30.90;;;7.70;99.90;;;;;;4944457;29;20215;-63
2024/03/31 05:00:31;;;;;;;61.60;30.23;;;7.70;99.90;;;;;;4945707;28;20245;-62
2024/03/31 05:02:58;;;;;;;58.97;30.43;;;7.70;99.90;;;;;;4952789;28;20225;-62
2024/03/31 05:05:24;;;;;;;61.37;29.20;;;7.70;99.90;;;;;;4948639;28;20199;-63
2024/03/31 05:07:53;;;;;;;59.77;29.97;;;7.70;99.90;;;;;;4947772;28;20219;-63
2024/03/31 05:10:20;;;;;;;64.57;31.37;;;7.70;99.90;;;;;;4952425;28;21072;-62
2024/03/31 05:12:47;;;;;;;65.90;30.67;;;7.70;99.90;;;;;;4950040;28;20220;-62
2024/03/31 05:15:14;;;;;;;62.40;29.80;;;7.70;99.90;;;;;;4948546;28;20283;-62
2024/03/31 05:17:41;;;;;;;58.77;28.47;;;7.70;99.90;;;;;;4946031;29;20699;-62
2024/03/31 05:20:08;;;;;;;66.03;31.00;;;7.70;99.90;;;;;;4948042;29;20537;-62
2024/03/31 05:22:35;;;;;;;60.73;29.47;;;7.70;99.90;;;;;;4928501;29;20216;-62
2024/03/31 05:25:03;;;;;;;58.73;28.73;;;7.70;99.90;;;;;;4945538;28;20279;-62
2024/03/31 05:27:30;;;;;;;61.63;29.87;;;7.70;99.90;;;;;;4954834;28;20242;-62
2024/03/31 05:29:57;;;;;;;60.63;29.63;;;7.70;99.90;;;;;;4946938;28;20307;-62
2024/03/31 05:32:24;;;;;;;56.40;28.77;;;7.80;99.90;;;;;;4943093;28;20228;-62
2024/03/31 05:34:51;;;;;;;56.37;28.47;;;7.80;99.90;;;;;;4950319;28;20247;-62
2024/03/31 05:37:19;;;;;;;52.93;27.00;;;7.80;99.90;;;;;;4930042;28;20647;-62
2024/03/31 05:39:45;;;;;;;58.43;28.27;;;7.80;99.90;;;;;;4954054;28;20593;-61
2024/03/31 05:42:14;;;;;;;62.27;28.63;;;7.80;99.90;;;;;;4944278;28;20263;-61
2024/03/31 05:44:40;;;;;;;57.40;28.00;;;7.80;99.90;;;;;;4955160;28;20607;-61
2024/03/31 05:47:07;;;;;;;57.20;27.67;;;7.80;99.90;;;;;;4961286;28;20617;-61
2024/03/31 05:49:34;;;;;;;53.10;27.63;;;7.80;99.90;;;;;;4948977;29;20311;-61
2024/03/31 05:52:01;;;;;;;56.73;27.23;;;7.90;99.90;;;;;;4946239;28;20970;-62
2024/03/31 05:54:27;;;;;;;55.83;27.93;;;7.90;99.90;;;;;;4941571;28;20628;-61
2024/03/31 05:56:55;;;;;;;57.43;27.47;;;8.00;99.90;;;;;;4955280;28;20303;-62
2024/03/31 05:59:23;;;;;;;54.27;28.17;;;8.10;99.90;;;;;;4948236;29;20326;-61
2024/03/31 06:01:50;;;;;;;54.47;26.07;;;8.10;99.90;;;;;;4949499;28;20308;-61
2024/03/31 06:04:17;;;;;;;51.10;27.57;;;8.20;99.90;;;;;;4945984;29;20231;-61
2024/03/31 06:06:44;;;;;;;52.93;26.83;;;8.30;99.90;;;;;;4949995;28;20229;-61
2024/03/31 06:09:10;;;;;;;52.43;27.10;;;8.40;99.90;;;;;;4947897;28;20235;-61
2024/03/31 06:11:38;;;;;;;52.93;26.70;;;8.50;99.90;;;;;;4946322;28;20189;-61
2024/03/31 06:14:04;;;;;;;48.03;25.27;;;8.60;99.90;;;;;;4942011;28;20201;-61
2024/03/31 06:16:33;;;;;;;47.67;24.07;;;8.70;99.90;;;;;;4942969;29;20226;-62
2024/03/31 06:18:59;;;;;;;43.70;23.47;;;8.70;99.90;;;;;;4947411;28;20732;-61
2024/03/31 06:21:27;;;;;;;43.57;24.20;;;8.80;99.90;;;;;;4951618;28;20305;-61
2024/03/31 06:23:53;;;;;;;48.03;23.30;;;8.80;99.90;;;;;;4951417;28;20231;-61
2024/03/31 06:26:20;;;;;;;39.60;20.97;;;8.80;99.90;;;;;;4955101;28;20295;-62
2024/03/31 06:28:47;;;;;;;37.17;20.00;;;8.70;99.90;;;;;;4944463;28;20224;-62
2024/03/31 06:31:14;;;;;;;40.57;21.47;;;8.70;99.90;;;;;;4934686;29;20234;-62
2024/03/31 06:33:43;;;;;;;37.27;20.20;;;8.60;99.90;;;;;;4950839;28;20220;-61
2024/03/31 06:36:11;;;;;;;33.80;18.33;;;8.60;99.90;;;;;;4948554;28;20311;-61
2024/03/31 06:38:37;;;;;;;36.13;18.93;;;8.60;99.90;;;;;;4942067;28;20250;-62
2024/03/31 06:41:05;;;;;;;30.63;18.63;;;8.60;99.90;;;;;;4955711;28;20717;-61
2024/03/31 06:43:31;;;;;;;31.80;18.30;;;8.60;99.90;;;;;;4948221;28;20306;-61
2024/03/31 06:45:58;;;;;;;32.33;19.30;;;8.70;99.90;;;;;;4948239;28;20252;-61
2024/03/31 06:48:25;;;;;;;40.53;19.43;;;8.90;99.90;;;;;;4949072;28;20726;-62
2024/03/31 06:50:54;;;;;;;32.77;20.33;;;9.50;99.90;;;;;;4951325;28;20197;-62
2024/03/31 06:53:20;;;;;;;31.57;19.50;;;10.00;99.90;;;;;;4933175;29;20193;-62
2024/03/31 06:55:47;;;;;;;27.43;17.37;;;10.30;99.90;;;;;;4951866;28;20565;-62
2024/03/31 06:58:14;;;;;;;20.63;14.80;;;10.70;99.90;;;;;;4951148;28;20234;-62
2024/03/31 07:00:41;;;;;;;22.20;12.43;;;10.90;99.90;;;;;;4959443;28;20781;-62
2024/03/31 07:03:08;;;;;;;18.13;11.17;;;11.20;99.90;;;;;;4949417;28;20274;-62
2024/03/31 07:05:37;;;;;;;17.93;10.67;;;11.10;99.90;;;;;;4952289;28;20192;-62
2024/03/31 07:08:06;;;;;;;14.50;9.90;;;10.90;99.90;;;;;;4947653;28;20197;-62
2024/03/31 07:10:55;;;;;;;13.47;9.93;;;10.60;99.90;;;;;;4954312;28;20303;-62
2024/03/31 07:13:22;;;;;;;20.07;11.13;;;10.30;99.90;;;;;;4948265;29;20216;-62
2024/03/31 07:15:50;;;;;;;22.40;11.43;;;10.40;99.90;;;;;;4946710;28;20315;-62
2024/03/31 07:18:17;;;;;;;19.33;10.20;;;10.90;99.90;;;;;;4947912;28;20348;-62
2024/03/31 07:20:44;;;;;;;18.47;9.23;;;11.40;99.90;;;;;;4947163;28;20211;-62
2024/03/31 07:23:12;;;;;;;17.47;8.50;;;11.50;99.90;;;;;;4949722;28;20208;-62
2024/03/31 07:25:40;;;;;;;14.60;9.23;;;11.10;99.90;;;;;;4951698;28;20222;-63
2024/03/31 07:28:06;;;;;;;17.60;8.50;;;10.90;99.90;;;;;;4948173;28;20226;-62
2024/03/31 07:30:33;;;;;;;18.17;9.47;;;10.80;99.90;;;;;;4947671;28;20299;-62
2024/03/31 07:33:00;;;;;;;16.03;7.90;;;11.30;99.90;;;;;;4954649;28;20253;-62
2024/03/31 07:35:27;;;;;;;18.70;8.40;;;11.80;99.90;;;;;;4935330;29;20245;-62
2024/03/31 07:37:53;;;;;;;15.57;7.83;;;12.40;99.90;;;;;;4939367;29;20307;-62
2024/03/31 07:40:22;;;;;;;18.23;7.73;;;13.20;99.90;;;;;;4946387;28;20224;-63
2024/03/31 07:42:49;;;;;;;18.57;7.00;;;13.70;99.90;;;;;;4934868;29;20224;-63
2024/03/31 07:45:16;;;;;;;16.67;7.40;;;13.70;99.90;;;;;;4959002;28;20245;-63
2024/03/31 07:47:42;;;;;;;15.27;7.13;;;13.60;99.90;;;;;;4973355;28;20195;-62
2024/03/31 07:50:10;;;;;;;12.97;6.03;;;13.50;99.90;;;;;;4973646;28;20215;-63
2024/03/31 07:52:38;;;;;;;14.17;6.47;;;13.30;99.90;;;;;;4958555;28;20299;-62
2024/03/31 07:55:07;;;;;;;7.57;5.63;;;12.90;99.90;;;;;;4965106;28;20281;-62
2024/03/31 07:57:34;;;;;;;9.00;5.70;;;12.80;99.90;;;;;;4954235;29;20235;-62
2024/03/31 08:00:02;;;;;;;13.13;5.37;;;12.50;99.90;;;;;;4952902;28;20668;-62
2024/03/31 08:02:28;;;;;;;10.90;5.37;;;12.40;99.90;;;;;;4935218;29;20647;-62
2024/03/31 08:04:56;;;;;;;16.10;5.77;;;12.50;99.90;;;;;;4947682;28;20588;-62
2024/03/31 08:07:22;;;;;;;13.57;4.63;;;12.60;99.90;;;;;;4951398;28;20221;-62
2024/03/31 08:10:08;;;;;;;9.50;5.30;;;12.50;99.90;;;;;;4955853;28;20755;-62
2024/03/31 08:12:36;;;;;;;9.53;4.60;;;12.30;99.90;;;;;;4944638;29;20226;-62
2024/03/31 08:15:23;;;;;;;7.03;4.30;;;12.20;99.90;;;;;;4957876;28;20306;-62
2024/03/31 08:17:49;;;;;;;4.73;3.50;;;12.30;99.90;;;;;;4962974;28;20200;-62
2024/03/31 08:20:17;;;;;;;8.17;3.17;;;12.40;99.90;;;;;;4954594;28;20188;-62
2024/03/31 08:22:43;;;;;;;5.93;2.80;;;12.50;99.90;;;;;;4968986;28;20323;-62
2024/03/31 08:25:11;;;;;;;4.23;3.00;;;13.10;99.90;;;;;;4939533;29;20276;-62
2024/03/31 08:27:39;;;;;;;5.23;2.83;;;13.80;99.90;;;;;;4934522;29;20278;-62
2024/03/31 08:30:07;;;;;;;6.63;2.70;;;14.10;95.40;;;;;;4934452;29;20228;-62
2024/03/31 08:32:33;;;;;;;6.83;2.77;;;14.20;98.80;;;;;;4968773;28;20199;-61
2024/03/31 08:35:01;;;;;;;8.33;2.50;;;14.20;90.80;;;;;;4972961;28;20314;-62
2024/03/31 08:37:27;;;;;;;9.20;2.77;;;13.80;89.10;;;;;;4973120;28;20310;-62
2024/03/31 08:39:55;;;;;;;7.70;2.97;;;13.60;99.90;;;;;;4955712;28;20698;-62
2024/03/31 08:42:28;;;;;;;7.87;2.80;;;14.00;99.90;;;;;;4927078;29;20229;-62
2024/03/31 08:44:58;;;;;;;8.60;2.77;;;14.30;88.20;;;;;;4934211;29;20224;-62
2024/03/31 08:47:28;;;;;;;6.03;2.30;;;14.50;87.30;;;;;;4949440;29;20351;-63
2024/03/31 08:49:57;;;;;;;4.57;2.40;;;14.70;91.60;;;;;;4963197;28;20220;-62
2024/03/31 08:52:24;;;;;;;8.80;2.27;;;15.10;76.50;;;;;;4952180;28;20311;-62
2024/03/31 08:54:52;;;;;;;7.30;2.00;;;15.70;49.20;;;;;;4942314;29;20227;-62
2024/03/31 09:01:03;;;;;;;7.63;2.30;;;17.10;99.90;;;;;;4935300;29;20226;-62
2024/03/31 09:03:29;;;;;;;7.80;2.43;;;17.00;99.90;;;;;;4934200;29;20227;-62
2024/03/31 09:05:57;;;;;;;6.30;2.40;;;16.60;99.90;;;;;;4945314;28;20570;-63
2024/03/31 09:08:23;;;;;;;9.47;2.00;;;16.60;99.90;;;;;;4952564;29;20207;-63
2024/03/31 09:10:51;;;;;;;8.47;2.13;;;17.10;99.90;;;;;;4937309;28;20222;-63
2024/03/31 09:13:17;;;;;;;7.50;2.13;;;17.70;99.90;;;;;;4950508;28;20220;-63
2024/03/31 09:15:45;;;;;;;9.23;2.53;;;17.80;99.90;;;;;;4945569;28;20311;-62
2024/03/31 09:18:12;;;;;;;7.57;2.03;;;17.90;99.90;;;;;;4956624;29;20232;-63
2024/03/31 09:20:40;;;;;;;3.80;2.10;;;18.10;99.90;;;;;;4960432;28;20255;-62
2024/03/31 09:23:06;;;;;;;8.17;2.33;;;18.50;99.90;;;;;;4939867;29;20655;-63
2024/03/31 09:25:34;;;;;;;11.63;2.37;;;18.60;99.90;;;;;;4937743;29;20224;-63
2024/03/31 09:28:38;;;;;;;5.30;2.27;;;18.50;99.90;;;;;;4937694;29;20220;-63
2024/03/31 09:31:05;;;;;;;7.13;2.07;;;18.70;99.90;;;;;;4952919;28;20272;-63
2024/03/31 09:33:34;;;;;;;4.93;1.90;;;19.00;99.90;;;;;;4976002;28;20567;-62
2024/03/31 09:36:02;;;;;;;5.70;2.00;;;19.00;99.90;;;;;;4961548;28;20224;-63
2024/03/31 09:38:48;;;;;;;3.73;1.90;;;19.20;99.90;;;;;;4957113;29;20198;-60
2024/03/31 09:41:37;;;;;;;5.20;1.83;;;19.00;99.90;;;;;;4957085;28;20260;-61
2024/03/31 09:44:05;;;;;;;4.80;1.90;;;19.00;99.90;;;;;;4945804;28;20679;-62
2024/03/31 09:46:32;;;;;;;6.93;1.80;;;19.50;99.90;;;;;;4964868;28;20235;-62
2024/03/31 09:49:03;;;;;;;9.77;1.87;;;20.00;99.90;;;;;;4947872;29;20230;-62
2024/03/31 09:51:35;;;;;;;5.20;2.27;;;20.80;99.90;;;;;;4955626;28;20235;-62
2024/03/31 09:54:07;;;;;;;7.90;2.00;;;20.70;99.90;;;;;;4957357;28;20223;-62
2024/03/31 10:00:16;;;;;;;5.07;1.70;;;21.00;99.90;;;;;;4957317;28;20312;-62
2024/03/31 10:02:50;;;;;;;7.87;1.90;;;20.20;99.90;;;;;;4955883;28;20202;-62
2024/03/31 10:05:25;;;;;;;6.13;2.13;;;18.60;99.90;;;;;;4956555;29;20207;-62
2024/03/31 10:07:53;;;;;;;7.83;1.93;;;17.60;99.90;;;;;;4945514;29;20216;-62
2024/03/31 10:14:02;;;;;;;6.70;1.70;;;17.40;99.90;;;;;;4938115;29;20221;-61
2024/03/31 10:20:11;;;;;;;6.27;1.80;;;19.20;99.90;;;;;;4937947;29;20652;-61
2024/03/31 10:22:41;;;;;;;8.47;1.77;;;19.20;99.90;;;;;;4965899;28;20224;-61
2024/03/31 10:32:14;;;;;;;5.70;1.70;;;18.30;99.90;;;;;;4937540;29;20224;-61
2024/03/31 10:34:41;;;;;;;3.37;1.30;;;17.70;99.90;;;;;;4936598;29;20236;-62
2024/03/31 10:37:10;;;;;;;3.33;1.20;;;17.30;99.90;;;;;;4955529;28;20243;-60
2024/03/31 10:39:38;;;;;;;4.57;1.47;;;16.60;99.90;;;;;;4963061;28;20747;-61
2024/03/31 10:42:06;;;;;;;5.33;1.50;;;16.00;99.90;;;;;;4966464;28;20238;-61
2024/03/31 10:44:33;;;;;;;3.93;1.50;;;15.80;99.90;;;;;;4955073;28;20220;-59
2024/03/31 10:47:00;;;;;;;5.50;1.60;;;15.80;99.90;;;;;;4955950;28;20199;-61
2024/03/31 10:49:36;;;;;;;4.00;1.50;;;15.80;99.90;;;;;;4941934;29;20308;-61
2024/03/31 10:52:04;;;;;;;4.57;1.27;;;15.60;99.90;;;;;;4958068;28;20263;-61
2024/03/31 10:54:34;;;;;;;2.97;1.30;;;15.50;99.90;;;;;;4974538;28;20823;-61
2024/03/31 10:57:05;;;;;;;2.53;1.10;;;15.50;99.90;;;;;;4974235;28;20270;-61
2024/03/31 10:59:32;;;;;;;4.57;1.40;;;15.40;99.90;;;;;;4974786;28;20560;-61
2024/03/31 11:02:21;;;;;;;6.07;1.50;;;15.20;99.90;;;;;;4974284;28;20315;-60
2024/03/31 11:05:00;;;;;;;3.90;1.40;;;15.20;99.90;;;;;;4964911;28;20300;-61
2024/03/31 11:11:09;;;;;;;1.10;1.00;;;15.40;99.90;;;;;;4948726;29;20230;-61
2024/03/31 11:13:38;;;;;;;4.57;1.20;;;15.70;99.90;;;;;;4954875;29;20224;-61
2024/03/31 11:16:06;;;;;;;5.70;1.10;;;15.90;99.90;;;;;;4955007;28;20234;-61
2024/03/31 11:18:33;;;;;;;1.37;1.10;;;15.90;99.90;;;;;;4954803;29;20232;-61
2024/03/31 11:21:08;;;;;;;2.23;1.17;;;15.70;99.90;;;;;;4954983;29;20733;-62
2024/03/31 11:23:38;;;;;;;6.27;1.47;;;15.70;99.90;;;;;;4940657;29;20205;-61
2024/03/31 11:26:06;;;;;;;4.37;1.30;;;15.30;99.90;;;;;;4936394;29;20194;-61
2024/03/31 11:28:33;;;;;;;3.20;1.10;;;15.50;99.90;;;;;;4919778;29;20585;-61
2024/03/31 11:31:02;;;;;;;4.57;1.20;;;15.60;99.90;;;;;;4938555;29;20374;-62
2024/03/31 11:33:31;;;;;;;4.07;1.40;;;15.70;99.90;;;;;;4954562;28;20227;-61
2024/03/31 11:35:59;;;;;;;3.37;1.20;;;15.70;99.90;;;;;;4973357;28;20268;-62
2024/03/31 11:38:26;;;;;;;4.90;1.20;;;15.90;99.90;;;;;;4957358;28;20558;-62
2024/03/31 11:40:53;;;;;;;2.63;1.10;;;16.00;99.90;;;;;;4956763;28;20230;-62
2024/03/31 11:43:19;;;;;;;3.63;1.20;;;15.90;99.90;;;;;;4973531;28;20225;-61
2024/03/31 11:45:47;;;;;;;3.10;1.23;;;15.80;99.90;;;;;;4973925;28;20248;-61
2024/03/31 11:48:15;;;;;;;4.57;1.13;;;15.60;99.90;;;;;;4973706;28;20306;-61
2024/03/31 11:50:42;;;;;;;3.13;1.20;;;15.50;99.90;;;;;;4973498;28;20665;-61
2024/03/31 11:53:09;;;;;;;1.20;1.20;;;15.40;99.90;;;;;;4973817;28;20227;-62
2024/03/31 11:55:40;;;;;;;1.57;0.90;;;15.60;99.90;;;;;;4973332;28;20762;-62
2024/03/31 11:58:07;;;;;;;3.50;1.20;;;15.70;99.90;;;;;;4973349;28;20380;-62
2024/03/31 12:00:35;;;;;;;3.17;1.10;;;15.90;99.90;;;;;;4972923;28;20352;-62
2024/03/31 12:03:05;;;;;;;1.73;1.03;;;15.90;99.90;;;;;;4970148;28;20317;-62
2024/03/31 12:05:35;;;;;;;2.30;1.20;;;15.80;99.90;;;;;;4954845;29;20333;-62
2024/03/31 12:08:03;;;;;;;1.53;1.17;;;15.50;99.90;;;;;;4953912;28;20228;-61
2024/03/31 12:10:31;;;;;;;2.13;1.50;;;15.00;99.90;;;;;;4953673;29;20267;-62
2024/03/31 12:12:58;;;;;;;1.90;1.10;;;14.70;99.90;;;;;;4951522;29;20319;-61
2024/03/31 12:15:26;;;;;;;0.87;0.87;;;14.30;99.90;;;;;;4945374;28;20221;-64
2024/03/31 12:17:57;;;;;;;1.10;1.00;;;14.10;99.90;;;;;;4941809;28;20237;-64
2024/03/31 12:20:25;;;;;;;2.63;1.13;;;13.90;99.90;;;;;;4963676;28;20212;-65
2024/03/31 12:22:54;;;;;;;1.90;1.10;;;13.90;99.90;;;;;;4940348;28;20286;-65
2024/03/31 12:25:22;;;;;;;1.57;1.10;;;13.90;99.90;;;;;;4947326;28;20228;-65
2024/03/31 12:27:49;;;;;;;1.13;1.03;;;13.80;99.90;;;;;;4946109;28;20220;-64
2024/03/31 12:30:16;;;;;;;1.63;0.90;;;13.80;99.90;;;;;;4949008;28;20224;-64
2024/03/31 12:32:42;;;;;;;1.97;1.10;;;13.60;99.90;;;;;;4948306;28;20544;-64
2024/03/31 12:35:10;;;;;;;0.90;0.90;;;13.60;99.90;;;;;;4947480;28;20314;-65
2024/03/31 12:37:37;;;;;;;1.10;1.10;;;13.60;99.90;;;;;;4946496;28;20824;-65
2024/03/31 12:40:08;;;;;;;0.77;0.77;;;13.70;99.90;;;;;;4949100;28;20258;-65
2024/03/31 12:42:38;;;;;;;1.97;1.10;;;13.60;99.90;;;;;;4947475;28;20573;-65
2024/03/31 12:45:06;;;;;;;0.97;0.90;;;13.70;99.90;;;;;;4944695;28;20219;-65
2024/03/31 12:47:33;;;;;;;1.40;1.00;;;13.80;99.90;;;;;;4943440;28;20656;-62
2024/03/31 12:50:01;;;;;;;1.80;0.90;;;13.60;99.90;;;;;;4939204;28;21929;-65
2024/03/31 12:52:28;;;;;;;0.97;0.97;;;13.50;99.90;;;;;;4952476;28;20318;-65
2024/03/31 12:54:55;;;;;;;1.80;1.13;;;13.50;99.90;;;;;;4945375;28;20359;-65
2024/03/31 12:57:23;;;;;;;4.20;1.10;;;13.40;99.90;;;;;;4946172;28;20220;-65
2024/03/31 12:59:53;;;;;;;4.73;1.40;;;13.40;99.90;;;;;;4946810;28;20193;-64
2024/03/31 13:02:19;;;;;;;4.00;1.30;;;13.30;99.90;;;;;;4945328;28;20675;-65
2024/03/31 13:04:47;;;;;;;1.47;1.10;;;13.20;99.90;;;;;;4948793;28;20307;-64
2024/03/31 13:07:13;;;;;;;1.33;1.27;;;13.20;99.90;;;;;;4944225;28;20222;-65
2024/03/31 13:09:41;;;;;;;2.13;1.07;;;13.20;99.90;;;;;;4947704;28;20224;-65
2024/03/31 13:12:07;;;;;;;2.20;1.10;;;13.20;99.90;;;;;;4949285;28;20669;-64
2024/03/31 13:14:37;;;;;;;2.70;1.10;;;13.20;99.90;;;;;;4952957;28;20554;-64
2024/03/31 13:17:04;;;;;;;1.37;1.20;;;13.20;99.90;;;;;;4950091;28;20188;-65
2024/03/31 13:19:31;;;;;;;3.40;1.30;;;13.20;99.90;;;;;;4942661;28;20736;-65
2024/03/31 13:22:00;;;;;;;1.90;1.30;;;13.30;99.90;;;;;;4946999;28;20216;-65
2024/03/31 13:24:30;;;;;;;1.20;1.20;;;13.20;99.90;;;;;;4944122;28;20216;-65
2024/03/31 13:26:56;;;;;;;4.00;1.37;;;13.30;99.90;;;;;;4945997;28;20228;-64
2024/03/31 13:29:27;;;;;;;2.53;1.43;;;13.40;99.90;;;;;;4943239;28;20254;-65
2024/03/31 13:31:55;;;;;;;2.47;1.10;;;13.40;99.90;;;;;;4947231;28;20562;-64
2024/03/31 13:34:22;;;;;;;1.60;1.53;;;13.50;99.90;;;;;;4942555;28;20682;-64
2024/03/31 13:36:48;;;;;;;1.30;1.20;;;13.50;99.90;;;;;;4945482;28;20319;-65
2024/03/31 13:39:16;;;;;;;2.00;1.17;;;13.50;99.90;;;;;;4943979;28;20233;-64
2024/03/31 13:41:42;;;;;;;1.27;1.20;;;13.40;99.90;;;;;;4945166;28;20279;-64